Time;durP1;ratioP1;P1;durP2;ratioP2;P2;SDS_P1;SDS_P2;PMS_P1;PMS_P2;Temp;Humidity;BMP_temperature;BMP_pressure;BME280_temperature;BME280_humidity;BME280_pressure;Samples;Min_cycle;Max_cycle;Signal;HPM_P1;HPM_P2
2022/01/19 00:00:21;;;;;;;1999.90;999.90;;;4.60;99.90;;;;;;5074813;28;20199;-72
2022/01/19 00:02:46;;;;;;;1999.90;999.90;;;4.50;99.90;;;;;;5074928;28;20174;-72
2022/01/19 00:05:12;;;;;;;1999.90;999.90;;;4.50;99.90;;;;;;5074662;28;20184;-72
2022/01/19 00:07:38;;;;;;;1999.90;999.90;;;4.50;99.90;;;;;;5074841;28;20651;-72
2022/01/19 00:10:09;;;;;;;1999.90;999.90;;;4.50;99.90;;;;;;5074742;28;20194;-72
2022/01/19 00:12:35;;;;;;;1999.90;999.90;;;4.40;99.90;;;;;;5074832;28;20397;-72
2022/01/19 00:15:02;;;;;;;1999.90;999.90;;;4.40;99.90;;;;;;5074383;28;20171;-72
2022/01/19 00:17:27;;;;;;;1999.90;999.90;;;4.40;99.90;;;;;;5074741;28;20443;-72
2022/01/19 00:19:53;;;;;;;1999.90;999.90;;;4.30;99.90;;;;;;5074617;28;21007;-72
2022/01/19 00:22:19;;;;;;;1999.90;999.90;;;4.30;99.90;;;;;;5074600;28;20467;-72
2022/01/19 00:24:45;;;;;;;1999.90;999.90;;;4.30;99.90;;;;;;5074307;28;20246;-72
2022/01/19 00:27:11;;;;;;;1999.90;999.90;;;4.30;99.90;;;;;;5074579;28;20401;-72
2022/01/19 00:29:37;;;;;;;1999.90;999.90;;;4.30;99.90;;;;;;5074354;28;20418;-72
2022/01/19 00:32:03;;;;;;;1999.90;999.90;;;4.30;99.90;;;;;;5074501;28;20914;-72
2022/01/19 00:34:29;;;;;;;1999.90;999.90;;;4.20;99.90;;;;;;5074052;28;20167;-72
2022/01/19 00:36:55;;;;;;;1999.90;999.90;;;4.20;99.90;;;;;;5074356;28;20432;-72
2022/01/19 00:39:24;;;;;;;1999.90;999.90;;;4.20;99.90;;;;;;5074218;28;20198;-72
2022/01/19 00:41:50;;;;;;;1999.90;999.90;;;4.20;99.90;;;;;;5074194;28;20804;-72
2022/01/19 00:44:15;;;;;;;1999.90;999.90;;;4.20;99.90;;;;;;5073883;28;20401;-72
2022/01/19 00:46:41;;;;;;;1999.90;999.90;;;4.20;99.90;;;;;;5074189;28;20505;-72
2022/01/19 00:49:06;;;;;;;1999.90;999.90;;;4.10;99.90;;;;;;5074097;28;20179;-72
2022/01/19 00:51:32;;;;;;;1999.90;999.90;;;4.10;99.90;;;;;;5073883;28;20201;-72
2022/01/19 00:53:57;;;;;;;1999.90;999.90;;;4.00;99.90;;;;;;5073988;28;20167;-72
2022/01/19 00:56:23;;;;;;;1999.90;999.90;;;3.90;99.90;;;;;;5073833;28;20191;-72
2022/01/19 00:58:49;;;;;;;1999.90;999.90;;;3.80;99.90;;;;;;5073675;28;20548;-72
2022/01/19 01:01:14;;;;;;;1999.90;999.90;;;3.70;99.90;;;;;;5073911;28;20195;-72
2022/01/19 01:03:40;;;;;;;1999.90;999.90;;;3.80;99.90;;;;;;5073889;28;20174;-72
2022/01/19 01:06:05;;;;;;;1999.90;999.90;;;3.80;99.90;;;;;;5073614;28;20543;-72
2022/01/19 01:08:31;;;;;;;1999.90;999.90;;;4.00;99.90;;;;;;5073812;28;20531;-72
2022/01/19 01:10:58;;;;;;;1999.90;999.90;;;4.00;99.90;;;;;;5073741;28;20516;-72
2022/01/19 01:15:25;;;;;;;1999.90;999.90;;;4.10;99.90;;;;;;5073625;28;20159;-72
2022/01/19 01:16:18;;;;;;;1999.90;999.90;;;4.20;99.90;;;;;;5073158;28;20179;-72
2022/01/19 01:18:44;;;;;;;1999.90;999.90;;;4.20;99.90;;;;;;5073512;28;20187;-72
2022/01/19 01:21:10;;;;;;;1999.90;999.90;;;4.20;99.90;;;;;;5073497;28;20213;-72
2022/01/19 01:23:35;;;;;;;1999.90;999.90;;;4.10;99.90;;;;;;5073503;28;20628;-72
2022/01/19 01:26:07;;;;;;;1999.90;999.90;;;4.10;99.90;;;;;;5073089;28;20194;-72
2022/01/19 01:28:32;;;;;;;1999.90;999.90;;;4.00;99.90;;;;;;5073414;28;20187;-72
2022/01/19 01:30:58;;;;;;;1999.90;999.90;;;3.90;99.90;;;;;;5073343;28;20628;-72
2022/01/19 01:33:24;;;;;;;1999.90;999.90;;;3.90;99.90;;;;;;5073280;28;20535;-72
2022/01/19 01:35:50;;;;;;;1999.90;999.90;;;3.90;99.90;;;;;;5054962;28;20204;-72
2022/01/19 01:38:16;;;;;;;1999.90;999.90;;;3.90;99.90;;;;;;5073096;28;20159;-72
2022/01/19 01:40:42;;;;;;;1999.90;999.90;;;3.90;99.90;;;;;;5073049;28;20561;-72
2022/01/19 01:43:09;;;;;;;1999.90;999.90;;;4.00;99.90;;;;;;5073095;28;20238;-72
2022/01/19 01:45:39;;;;;;;1999.90;999.90;;;4.00;99.90;;;;;;5072748;28;20190;-72
2022/01/19 01:48:15;;;;;;;1999.90;999.90;;;4.00;99.90;;;;;;5072916;28;20171;-72
2022/01/19 01:53:27;;;;;;;1999.90;999.90;;;3.80;99.90;;;;;;5072957;28;20227;-72
2022/01/19 01:55:59;;;;;;;1999.90;999.90;;;3.70;99.90;;;;;;5072577;28;20515;-72
2022/01/19 01:58:26;;;;;;;1999.90;999.90;;;3.70;99.90;;;;;;5072577;28;20249;-72
2022/01/19 02:00:54;;;;;;;1999.90;999.90;;;3.60;99.90;;;;;;5072671;28;20211;-72
2022/01/19 02:03:21;;;;;;;1999.90;999.90;;;3.60;99.90;;;;;;5072000;28;20257;-72
2022/01/19 02:06:06;;;;;;;1999.90;999.90;;;3.70;99.90;;;;;;5072369;28;20169;-72
2022/01/19 02:08:54;;;;;;;1999.90;999.90;;;3.70;99.90;;;;;;5072599;28;20210;-72
2022/01/19 02:22:30;;;;;;;1999.90;999.90;;;4.10;99.90;;;;;;5067153;28;20214;-72
2022/01/19 02:24:56;;;;;;;1999.90;999.90;;;4.20;99.90;;;;;;5072039;28;20166;-72
2022/01/19 02:41:07;;;;;;;1999.90;999.90;;;4.20;99.90;;;;;;5048524;28;20221;-72
2022/01/19 02:43:33;;;;;;;1999.90;999.90;;;4.10;99.90;;;;;;5072440;28;20159;-72
2022/01/19 02:51:26;;;;;;;1999.90;999.90;;;4.20;99.90;;;;;;5072020;28;20177;-72
2022/01/19 02:53:52;;;;;;;1999.90;999.90;;;4.20;99.90;;;;;;5071848;28;20170;-72
2022/01/19 02:56:25;;;;;;;1999.90;999.90;;;4.20;99.90;;;;;;5053709;28;20167;-72
2022/01/19 02:58:57;;;;;;;1999.90;999.90;;;4.30;99.90;;;;;;5071875;28;20202;-72
2022/01/19 03:09:24;;;;;;;1999.90;999.90;;;4.30;99.90;;;;;;5071773;28;20194;-72
2022/01/19 03:11:50;;;;;;;1999.90;999.90;;;4.30;99.90;;;;;;5071782;28;20221;-72
2022/01/19 03:14:17;;;;;;;1999.90;999.90;;;4.30;99.90;;;;;;5074020;28;20556;-72
2022/01/19 03:16:43;;;;;;;1999.90;999.90;;;4.40;99.90;;;;;;5075934;28;20454;-72
2022/01/19 03:19:10;;;;;;;1999.90;999.90;;;4.40;99.90;;;;;;5075759;28;20239;-72
2022/01/19 03:21:36;;;;;;;1999.90;999.90;;;4.50;99.90;;;;;;5075960;28;20452;-72
2022/01/19 03:24:03;;;;;;;1999.90;999.90;;;4.50;99.90;;;;;;5075603;28;20401;-72
2022/01/19 03:26:28;;;;;;;1999.90;999.90;;;4.50;99.90;;;;;;5075727;28;20646;-73
2022/01/19 03:28:54;;;;;;;1999.90;999.90;;;4.50;99.90;;;;;;5075535;28;20495;-72
2022/01/19 03:31:20;;;;;;;1999.90;999.90;;;4.60;99.90;;;;;;5075711;28;20171;-72
2022/01/19 03:33:45;;;;;;;1999.90;999.90;;;4.70;99.90;;;;;;5075611;28;20159;-72
2022/01/19 03:36:12;;;;;;;1999.90;999.90;;;4.60;99.90;;;;;;5075228;28;20167;-72
2022/01/19 03:38:37;;;;;;;1999.90;999.90;;;4.60;99.90;;;;;;5075493;28;20218;-72
2022/01/19 03:41:03;;;;;;;1999.90;999.90;;;4.60;99.90;;;;;;5075317;28;20533;-72
2022/01/19 03:43:29;;;;;;;1999.90;999.90;;;4.70;99.90;;;;;;5075402;28;20194;-72
2022/01/19 03:45:58;;;;;;;1999.90;999.90;;;4.60;99.90;;;;;;5075069;28;20182;-72
2022/01/19 03:51:08;;;;;;;1999.90;999.90;;;4.60;99.90;;;;;;5075347;28;20405;-72
2022/01/19 03:53:34;;;;;;;1999.90;999.90;;;4.60;99.90;;;;;;5075211;28;20416;-72
2022/01/19 03:56:01;;;;;;;1999.90;999.90;;;4.60;99.90;;;;;;5074774;28;20633;-72
2022/01/19 03:58:26;;;;;;;1999.90;999.90;;;4.60;99.90;;;;;;5074945;28;20451;-72
2022/01/19 04:00:55;;;;;;;1999.90;999.90;;;4.70;99.90;;;;;;5075037;28;20444;-72
2022/01/19 04:03:30;;;;;;;1999.90;999.90;;;4.70;99.90;;;;;;5075006;28;20216;-72
2022/01/19 04:06:01;;;;;;;1999.90;999.90;;;4.80;99.90;;;;;;5074684;28;20781;-72
2022/01/19 04:08:27;;;;;;;1999.90;999.90;;;4.80;99.90;;;;;;5074881;28;20474;-72
2022/01/19 04:10:53;;;;;;;1999.90;999.90;;;4.80;99.90;;;;;;5074838;28;20977;-72
2022/01/19 04:15:53;;;;;;;1999.90;999.90;;;4.90;99.90;;;;;;5074645;28;20961;-72
2022/01/19 04:18:19;;;;;;;1999.90;999.90;;;5.00;99.90;;;;;;5074625;28;20508;-72
2022/01/19 04:20:49;;;;;;;1999.90;999.90;;;4.90;99.90;;;;;;5074615;28;20218;-72
2022/01/19 04:23:18;;;;;;;1999.90;999.90;;;4.90;99.90;;;;;;5074648;28;20435;-72
2022/01/19 04:25:44;;;;;;;1999.90;999.90;;;5.00;99.90;;;;;;5073574;28;20545;-72
2022/01/19 04:28:10;;;;;;;1999.90;999.90;;;5.00;99.90;;;;;;5074466;28;20403;-72
2022/01/19 04:30:37;;;;;;;1999.90;999.90;;;4.90;99.90;;;;;;5074521;28;20394;-72
2022/01/19 04:33:08;;;;;;;1999.90;999.90;;;4.90;99.90;;;;;;5074432;28;20939;-72
2022/01/19 04:35:44;;;;;;;1999.90;999.90;;;4.90;99.90;;;;;;5074155;28;20409;-72
2022/01/19 05:04:51;;;;;;;1999.90;999.90;;;4.90;99.90;;;;;;5073672;28;20170;-71
2022/01/19 05:07:29;;;;;;;1999.90;999.90;;;4.90;99.90;;;;;;5073902;28;20786;-71
2022/01/19 05:15:27;;;;;;;1999.90;999.90;;;4.80;99.90;;;;;;5073538;28;20193;-71
2022/01/19 05:17:53;;;;;;;1999.90;999.90;;;4.80;99.90;;;;;;5073771;28;20167;-71
2022/01/19 05:20:20;;;;;;;1999.90;999.90;;;4.80;99.90;;;;;;5073661;28;20171;-71
2022/01/19 05:22:46;;;;;;;1999.90;999.90;;;4.80;99.90;;;;;;5073355;28;20230;-71
2022/01/19 05:25:11;;;;;;;1999.90;999.90;;;4.80;99.90;;;;;;5073238;28;20505;-71
2022/01/19 05:27:37;;;;;;;1999.90;999.90;;;4.80;99.90;;;;;;5073500;28;20624;-71
2022/01/19 05:30:03;;;;;;;1999.90;999.90;;;4.80;99.90;;;;;;5073615;28;20171;-71
2022/01/19 05:32:29;;;;;;;1999.90;999.90;;;4.90;99.90;;;;;;5073295;28;20254;-71
2022/01/19 05:34:55;;;;;;;1999.90;999.90;;;5.00;99.90;;;;;;5073060;28;20467;-71
2022/01/19 05:37:20;;;;;;;1999.90;999.90;;;5.00;99.90;;;;;;5072128;28;20221;-71
2022/01/19 05:39:46;;;;;;;1999.90;999.90;;;5.10;99.90;;;;;;5073322;28;20174;-71
2022/01/19 05:42:15;;;;;;;1999.90;999.90;;;4.90;99.90;;;;;;5073087;28;20273;-71
2022/01/19 05:44:43;;;;;;;1999.90;999.90;;;4.80;99.90;;;;;;5072909;28;20181;-71
2022/01/19 05:47:10;;;;;;;1999.90;999.90;;;4.70;99.90;;;;;;5072905;28;20495;-71
2022/01/19 05:49:36;;;;;;;1999.90;999.90;;;4.70;99.90;;;;;;5073197;28;20405;-71
2022/01/19 05:52:01;;;;;;;1999.90;999.90;;;4.80;99.90;;;;;;5072817;28;20455;-71
2022/01/19 05:54:27;;;;;;;1999.90;999.90;;;4.80;99.90;;;;;;5072797;28;20257;-71
2022/01/19 05:56:53;;;;;;;1999.90;999.90;;;4.80;99.90;;;;;;5072817;28;20728;-71
2022/01/19 05:59:18;;;;;;;1999.90;999.90;;;4.90;99.90;;;;;;5072907;28;20197;-71
2022/01/19 06:01:44;;;;;;;1999.90;999.90;;;4.90;99.90;;;;;;5072666;28;20656;-71
2022/01/19 06:04:10;;;;;;;1999.90;999.90;;;4.90;99.90;;;;;;5072450;28;20167;-71
2022/01/19 06:06:36;;;;;;;1999.90;999.90;;;4.90;99.90;;;;;;5072450;28;20523;-71
2022/01/19 06:09:09;;;;;;;1999.90;999.90;;;4.90;99.90;;;;;;5072673;28;20252;-71
2022/01/19 06:11:35;;;;;;;1999.90;999.90;;;5.00;99.90;;;;;;5072783;28;20155;-71
2022/01/19 06:14:00;;;;;;;1999.90;999.90;;;4.90;99.90;;;;;;5072328;28;20483;-71
2022/01/19 06:16:26;;;;;;;1999.90;999.90;;;4.90;99.90;;;;;;5072351;28;20625;-71
2022/01/19 06:18:51;;;;;;;1999.90;999.90;;;4.90;99.90;;;;;;5072496;28;20171;-71
2022/01/19 06:21:17;;;;;;;1999.90;999.90;;;4.90;99.90;;;;;;5072272;28;20218;-71
2022/01/19 06:23:43;;;;;;;1999.90;999.90;;;5.00;99.90;;;;;;5072321;28;20242;-71
2022/01/19 06:26:09;;;;;;;1999.90;999.90;;;5.00;99.90;;;;;;5071936;28;20977;-71
2022/01/19 06:28:34;;;;;;;1999.90;999.90;;;5.00;99.90;;;;;;5072344;28;20167;-71
2022/01/19 06:31:00;;;;;;;1999.90;999.90;;;5.10;99.90;;;;;;5072243;28;20163;-70
2022/01/19 06:33:25;;;;;;;1999.90;999.90;;;5.00;99.90;;;;;;5072248;28;20171;-70
2022/01/19 06:35:52;;;;;;;1999.90;999.90;;;4.80;99.90;;;;;;5071760;28;20200;-71
2022/01/19 06:38:18;;;;;;;1999.90;999.90;;;4.70;99.90;;;;;;5072162;28;20556;-71
2022/01/19 06:40:43;;;;;;;1999.90;999.90;;;4.70;99.90;;;;;;5072024;28;20401;-71
2022/01/19 06:43:09;;;;;;;1999.90;999.90;;;4.70;99.90;;;;;;5072047;28;20196;-71
2022/01/19 06:45:34;;;;;;;1999.90;999.90;;;4.60;99.90;;;;;;5071610;28;20588;-71
2022/01/19 06:48:00;;;;;;;1999.90;999.90;;;4.50;99.90;;;;;;5071869;28;20167;-71
2022/01/19 06:50:27;;;;;;;1999.90;999.90;;;4.50;99.90;;;;;;5071957;28;20171;-71
2022/01/19 06:52:53;;;;;;;1999.90;999.90;;;4.50;99.90;;;;;;5071841;28;20217;-71
2022/01/19 06:55:19;;;;;;;1999.90;999.90;;;4.60;99.90;;;;;;5071487;28;20206;-71
2022/01/19 06:57:45;;;;;;;1999.90;999.90;;;4.70;99.90;;;;;;5071854;28;20174;-71
2022/01/19 07:00:12;;;;;;;1999.90;999.90;;;4.70;99.90;;;;;;5071882;28;20163;-71
2022/01/19 07:02:37;;;;;;;1999.90;999.90;;;4.80;99.90;;;;;;5071612;28;20488;-71
2022/01/19 07:05:04;;;;;;;1999.90;999.90;;;4.70;99.90;;;;;;5071476;28;20444;-71
2022/01/19 07:07:30;;;;;;;1999.90;999.90;;;4.70;99.90;;;;;;5071695;28;20202;-71
2022/01/19 07:09:56;;;;;;;1999.90;999.90;;;4.80;99.90;;;;;;5071752;28;20182;-71
2022/01/19 07:12:22;;;;;;;1999.90;999.90;;;4.80;99.90;;;;;;5071711;28;20824;-71
2022/01/19 07:14:47;;;;;;;1999.90;999.90;;;4.90;99.90;;;;;;5071363;28;20209;-71
2022/01/19 07:17:13;;;;;;;1999.90;999.90;;;4.90;99.90;;;;;;5071580;28;20409;-71
2022/01/19 07:19:39;;;;;;;1999.90;999.90;;;4.90;99.90;;;;;;5072056;28;20182;-71
2022/01/19 07:22:05;;;;;;;1999.90;999.90;;;5.00;99.90;;;;;;5071409;28;20297;-71
2022/01/19 07:24:30;;;;;;;1999.90;999.90;;;5.00;99.90;;;;;;5071258;28;20175;-71
2022/01/19 07:26:56;;;;;;;1999.90;999.90;;;4.90;99.90;;;;;;5071440;28;20429;-71
2022/01/19 07:29:22;;;;;;;1999.90;999.90;;;4.90;99.90;;;;;;5071581;28;20165;-71
2022/01/19 07:31:47;;;;;;;1999.90;999.90;;;4.90;99.90;;;;;;5071597;28;20540;-71
2022/01/19 07:34:13;;;;;;;1999.90;999.90;;;4.70;99.90;;;;;;5071182;28;20246;-71
2022/01/19 07:36:38;;;;;;;1999.90;999.90;;;4.60;99.90;;;;;;5071347;28;20558;-71
2022/01/19 07:39:05;;;;;;;1999.90;999.90;;;4.40;99.90;;;;;;5071410;28;20225;-71
2022/01/19 07:41:31;;;;;;;1999.90;999.90;;;4.40;99.90;;;;;;5071371;28;20282;-71
2022/01/19 07:43:56;;;;;;;1999.90;999.90;;;4.30;99.90;;;;;;5071229;28;20488;-71
2022/01/19 07:46:22;;;;;;;1999.90;999.90;;;4.20;99.90;;;;;;5070985;28;20210;-71
2022/01/19 07:48:48;;;;;;;1999.90;999.90;;;4.20;99.90;;;;;;5071324;28;20163;-71
2022/01/19 07:51:14;;;;;;;1999.90;999.90;;;4.20;99.90;;;;;;5071293;28;20258;-71
2022/01/19 07:53:39;;;;;;;1999.90;999.90;;;4.20;99.90;;;;;;5071222;28;20182;-71
2022/01/19 07:56:05;;;;;;;1999.90;999.90;;;4.30;99.90;;;;;;5071027;28;20262;-71
2022/01/19 07:58:31;;;;;;;1999.90;999.90;;;4.30;99.90;;;;;;5071010;28;20644;-71
2022/01/19 08:00:56;;;;;;;1999.90;999.90;;;4.40;99.90;;;;;;5072893;28;20958;-71
2022/01/19 08:03:22;;;;;;;1999.90;999.90;;;4.60;99.90;;;;;;5074957;28;20163;-71
2022/01/19 08:05:48;;;;;;;1999.90;999.90;;;4.60;99.90;;;;;;5074488;28;20216;-71
2022/01/19 08:08:14;;;;;;;1999.90;999.90;;;4.70;99.90;;;;;;5074864;28;20155;-71
2022/01/19 08:10:42;;;;;;;1999.90;999.90;;;4.80;99.90;;;;;;5074825;28;20751;-71
2022/01/19 08:13:09;;;;;;;1999.90;999.90;;;4.80;99.90;;;;;;5074739;28;20401;-71
2022/01/19 08:15:34;;;;;;;1999.90;999.90;;;5.00;99.90;;;;;;5074577;28;20417;-71
2022/01/19 08:18:00;;;;;;;1999.90;999.90;;;5.00;99.90;;;;;;5074716;28;20396;-71
2022/01/19 08:20:26;;;;;;;1999.90;999.90;;;5.10;99.90;;;;;;5074590;28;20572;-71
2022/01/19 08:22:51;;;;;;;1999.90;999.90;;;5.00;99.90;;;;;;5074497;28;20199;-71
2022/01/19 08:25:17;;;;;;;1999.90;999.90;;;5.00;99.90;;;;;;5074339;28;20634;-71
2022/01/19 08:27:43;;;;;;;1999.90;999.90;;;5.00;99.90;;;;;;5074518;28;20159;-71
2022/01/19 08:30:10;;;;;;;1999.90;999.90;;;5.00;99.90;;;;;;5074539;28;20173;-71
2022/01/19 08:32:36;;;;;;;1999.90;999.90;;;5.10;99.90;;;;;;5074426;28;20171;-70
2022/01/19 08:35:07;;;;;;;1999.90;999.90;;;5.00;99.90;;;;;;5074007;28;20404;-70
2022/01/19 08:37:33;;;;;;;1999.90;999.90;;;5.00;99.90;;;;;;5074601;28;20397;-70
2022/01/19 08:40:01;;;;;;;1999.90;999.90;;;5.10;99.90;;;;;;5074341;28;20409;-71
2022/01/19 08:42:28;;;;;;;1999.90;999.90;;;5.10;99.90;;;;;;5074206;28;20452;-70
2022/01/19 08:44:54;;;;;;;1999.90;999.90;;;5.10;99.90;;;;;;5073835;28;20477;-70
2022/01/19 08:47:21;;;;;;;1999.90;999.90;;;5.20;99.90;;;;;;5074239;28;20509;-70
2022/01/19 08:49:46;;;;;;;1999.90;999.90;;;5.20;99.90;;;;;;5073985;28;20914;-70
2022/01/19 08:52:12;;;;;;;1999.90;999.90;;;5.30;99.90;;;;;;5074085;28;20414;-70
2022/01/19 08:54:37;;;;;;;1999.90;999.90;;;5.30;99.90;;;;;;5069004;28;20179;-70
2022/01/19 08:57:04;;;;;;;1999.90;999.90;;;5.30;99.90;;;;;;5073424;28;20543;-71
2022/01/19 08:59:31;;;;;;;1999.90;999.90;;;5.20;99.90;;;;;;5073190;28;20175;-70
2022/01/19 09:01:57;;;;;;;1999.90;999.90;;;5.30;99.90;;;;;;5073079;28;20453;-70
2022/01/19 09:04:24;;;;;;;1999.90;999.90;;;5.10;99.90;;;;;;5072990;28;20404;-71
2022/01/19 09:06:50;;;;;;;1999.90;999.90;;;5.10;99.90;;;;;;5073182;28;20429;-70
2022/01/19 09:09:15;;;;;;;1999.90;999.90;;;5.10;99.90;;;;;;5055102;28;20420;-71
2022/01/19 09:11:42;;;;;;;1999.90;999.90;;;5.00;99.90;;;;;;5073289;28;20167;-72
2022/01/19 09:14:10;;;;;;;1999.90;999.90;;;5.10;99.90;;;;;;5073389;28;20186;-72
2022/01/19 09:16:37;;;;;;;1999.90;999.90;;;5.00;99.90;;;;;;5055064;28;20478;-72
2022/01/19 09:19:04;;;;;;;1999.90;999.90;;;5.10;99.90;;;;;;5055196;28;20454;-72
2022/01/19 09:21:31;;;;;;;1999.90;999.90;;;5.10;99.90;;;;;;5073168;28;20452;-72
2022/01/19 09:23:57;;;;;;;1999.90;999.90;;;5.10;99.90;;;;;;5054826;28;20409;-72
2022/01/19 09:26:23;;;;;;;1999.90;999.90;;;5.10;99.90;;;;;;5072765;28;20430;-72
2022/01/19 09:28:48;;;;;;;1999.90;999.90;;;5.30;99.90;;;;;;5073250;28;20405;-72
2022/01/19 09:31:17;;;;;;;1999.90;999.90;;;5.40;99.90;;;;;;5072685;28;20163;-72
2022/01/19 09:33:44;;;;;;;1999.90;999.90;;;5.40;99.90;;;;;;5072730;28;20179;-72
2022/01/19 09:38:53;;;;;;;1999.90;999.90;;;5.40;99.90;;;;;;5072829;28;20406;-72
2022/01/19 09:41:20;;;;;;;1999.90;999.90;;;5.30;99.90;;;;;;5072763;28;20452;-71
2022/01/19 09:43:45;;;;;;;1999.90;999.90;;;5.30;99.90;;;;;;5072468;28;20190;-72
2022/01/19 09:46:11;;;;;;;1999.90;999.90;;;5.20;99.90;;;;;;5071688;28;20207;-71
2022/01/19 09:48:37;;;;;;;1999.90;999.90;;;5.10;99.90;;;;;;5072812;28;20163;-72
2022/01/19 09:51:03;;;;;;;1999.90;999.90;;;5.20;99.90;;;;;;5072837;28;20871;-72
2022/01/19 09:53:28;;;;;;;1999.90;999.90;;;5.30;99.90;;;;;;5072066;28;20852;-72
2022/01/19 09:55:54;;;;;;;1999.90;999.90;;;5.30;99.90;;;;;;5072067;28;20698;-72
2022/01/19 09:58:22;;;;;;;1999.90;999.90;;;5.30;99.90;;;;;;5072684;28;20599;-72
2022/01/19 10:00:48;;;;;;;1999.90;999.90;;;5.40;99.90;;;;;;5071907;28;20414;-72
2022/01/19 10:03:23;;;;;;;1999.90;999.90;;;5.40;99.90;;;;;;5072553;28;20406;-72
2022/01/19 10:06:07;;;;;;;1999.90;999.90;;;5.30;99.90;;;;;;5072002;28;20446;-72
2022/01/19 10:08:39;;;;;;;1999.90;999.90;;;5.30;99.90;;;;;;5072004;28;20428;-72
2022/01/19 10:11:18;;;;;;;1999.90;999.90;;;5.20;99.90;;;;;;5072379;28;20409;-71
2022/01/19 10:17:07;;;;;;;1999.90;999.90;;;5.30;99.90;;;;;;5072238;28;20539;-71
2022/01/19 10:19:42;;;;;;;1999.90;999.90;;;5.40;99.90;;;;;;5071581;28;20444;-71
2022/01/19 10:22:24;;;;;;;1999.90;999.90;;;5.50;99.90;;;;;;5071816;28;20502;-72
2022/01/19 10:24:57;;;;;;;1999.90;999.90;;;5.40;99.90;;;;;;5070684;28;20487;-72
2022/01/19 10:27:31;;;;;;;1999.90;999.90;;;5.50;99.90;;;;;;5071672;28;20492;-71
2022/01/19 10:30:13;;;;;;;1999.90;999.90;;;5.50;99.90;;;;;;5071680;28;20890;-72
2022/01/19 10:32:48;;;;;;;1999.90;999.90;;;5.50;99.90;;;;;;5071616;28;20933;-72
2022/01/19 10:35:27;;;;;;;1999.90;999.90;;;5.60;99.90;;;;;;5071033;28;20432;-71
2022/01/19 10:38:11;;;;;;;1999.90;999.90;;;5.70;99.90;;;;;;5071443;28;20412;-71
2022/01/19 10:40:39;;;;;;;1999.90;999.90;;;5.70;99.90;;;;;;5071886;28;20458;-71
2022/01/19 10:43:26;;;;;;;1999.90;999.90;;;5.60;99.90;;;;;;5071277;28;20550;-71
2022/01/19 10:45:53;;;;;;;1999.90;999.90;;;5.60;99.90;;;;;;5114291;22;20221;-72
2022/01/19 10:48:42;;;;;;;1999.90;999.90;;;5.50;99.90;;;;;;5092049;28;20745;-72
2022/01/19 10:51:09;;;;;;;1999.90;999.90;;;5.50;99.90;;;;;;5091165;28;20407;-72
2022/01/19 10:53:35;;;;;;;1999.90;999.90;;;5.60;99.90;;;;;;5091124;28;20403;-72
2022/01/19 10:56:05;;;;;;;1999.90;999.90;;;5.50;99.90;;;;;;5091339;28;20823;-72
2022/01/19 10:58:31;;;;;;;1999.90;999.90;;;5.50;99.90;;;;;;5091163;28;20920;-72
2022/01/19 11:00:57;;;;;;;1999.90;999.90;;;5.50;99.90;;;;;;5091586;28;20759;-72
2022/01/19 11:03:26;;;;;;;1999.90;999.90;;;5.50;99.90;;;;;;5091646;28;20400;-72
2022/01/19 11:05:54;;;;;;;1999.90;999.90;;;5.60;99.90;;;;;;5088841;28;20223;-74
2022/01/19 11:08:23;;;;;;;1999.90;999.90;;;5.60;99.90;;;;;;5091525;28;20913;-73
2022/01/19 11:10:52;;;;;;;1999.90;999.90;;;5.50;99.90;;;;;;5091748;28;20496;-74
2022/01/19 11:13:30;;;;;;;1999.90;999.90;;;5.60;99.90;;;;;;5073089;28;20412;-75
2022/01/19 11:16:01;;;;;;;1999.90;999.90;;;5.60;99.90;;;;;;5091105;28;20427;-74
2022/01/19 11:18:29;;;;;;;1999.90;999.90;;;5.60;99.90;;;;;;5091671;28;20458;-73
2022/01/19 11:21:01;;;;;;;1999.90;999.90;;;5.60;99.90;;;;;;5091029;28;20170;-73
2022/01/19 11:23:33;;;;;;;1999.90;999.90;;;5.70;99.90;;;;;;5091362;28;20400;-73
2022/01/19 11:26:05;;;;;;;1999.90;999.90;;;5.60;99.90;;;;;;5090854;28;20428;-72
2022/01/19 11:28:43;;;;;;;1999.90;999.90;;;5.60;99.90;;;;;;5090972;28;20851;-72
2022/01/19 11:31:13;;;;;;;1999.90;999.90;;;5.60;99.90;;;;;;5091539;28;20408;-73
2022/01/19 11:33:51;;;;;;;1999.90;999.90;;;5.60;99.90;;;;;;5091369;28;20405;-72
2022/01/19 11:36:22;;;;;;;1999.90;999.90;;;5.60;99.90;;;;;;5092830;28;20822;-72
2022/01/19 11:39:02;;;;;;;1999.90;999.90;;;5.60;99.90;;;;;;5095473;28;20401;-72
2022/01/19 11:41:34;;;;;;;1999.90;999.90;;;5.60;99.90;;;;;;5095358;28;20780;-75
2022/01/19 11:44:00;;;;;;;1999.90;999.90;;;5.60;99.90;;;;;;5094450;28;20400;-77
2022/01/19 11:46:39;;;;;;;1999.90;999.90;;;5.60;99.90;;;;;;5094930;28;20436;-73
2022/01/19 11:49:10;;;;;;;1999.90;999.90;;;5.60;99.90;;;;;;5095278;28;20162;-74
2022/01/19 11:51:44;;;;;;;1999.90;999.90;;;5.60;99.90;;;;;;5094854;28;20486;-73
2022/01/19 11:54:16;;;;;;;1999.90;999.90;;;5.70;99.90;;;;;;5094845;28;20460;-73
2022/01/19 11:57:02;;;;;;;1999.90;999.90;;;5.60;99.90;;;;;;5094832;28;20841;-73
2022/01/19 11:59:47;;;;;;;1999.90;999.90;;;5.60;99.90;;;;;;5094606;28;20776;-73
2022/01/19 12:02:24;;;;;;;1999.90;999.90;;;5.60;99.90;;;;;;5095056;28;20447;-73
2022/01/19 12:04:52;;;;;;;1999.90;999.90;;;5.60;99.90;;;;;;5094008;28;20418;-74
2022/01/19 12:07:57;;;;;;;1999.90;999.90;;;5.60;99.90;;;;;;5094712;28;20810;-73
2022/01/19 12:10:30;;;;;;;1999.90;999.90;;;5.50;99.90;;;;;;5094998;28;20391;-73
2022/01/19 12:16:24;;;;;;;1999.90;999.90;;;5.60;99.90;;;;;;5094318;28;20416;-73
2022/01/19 12:19:07;;;;;;;1999.90;999.90;;;5.50;99.90;;;;;;5094726;28;20400;-73
2022/01/19 12:21:43;;;;;;;1999.90;999.90;;;5.50;99.90;;;;;;5094263;28;20428;-73
2022/01/19 12:24:19;;;;;;;1999.90;999.90;;;5.50;99.90;;;;;;5094148;28;21049;-73
2022/01/19 12:26:52;;;;;;;1999.90;999.90;;;5.40;99.90;;;;;;5094514;28;20913;-73
2022/01/19 12:29:49;;;;;;;1999.90;999.90;;;5.50;99.90;;;;;;5094096;28;20396;-73
2022/01/19 12:32:19;;;;;;;1999.90;999.90;;;5.40;99.90;;;;;;5074314;28;20416;-73
2022/01/19 12:34:48;;;;;;;1999.90;999.90;;;5.40;99.90;;;;;;5093447;28;20412;-73
2022/01/19 12:37:33;;;;;;;1999.90;999.90;;;5.40;99.90;;;;;;5094181;28;20417;-73
2022/01/19 12:40:27;;;;;;;1999.90;999.90;;;5.30;99.90;;;;;;5094186;28;20498;-73
2022/01/19 12:43:01;;;;;;;1999.90;999.90;;;5.30;99.90;;;;;;5093698;28;20202;-73
2022/01/19 12:45:33;;;;;;;1999.90;999.90;;;5.20;99.90;;;;;;5093485;28;20900;-73
2022/01/19 12:48:00;;;;;;;1999.90;999.90;;;5.20;99.90;;;;;;5093870;28;20404;-73
2022/01/19 12:50:29;;;;;;;1999.90;999.90;;;5.20;99.90;;;;;;5075645;28;20417;-73
2022/01/19 12:53:00;;;;;;;1999.90;999.90;;;5.20;99.90;;;;;;5094101;28;20992;-73
2022/01/19 12:55:34;;;;;;;1999.90;999.90;;;5.20;99.90;;;;;;5093342;28;20826;-73
2022/01/19 12:58:07;;;;;;;1999.90;999.90;;;5.30;99.90;;;;;;5093687;28;20415;-73
2022/01/19 13:00:33;;;;;;;1999.90;999.90;;;5.20;99.90;;;;;;5093971;28;20443;-73
2022/01/19 13:03:10;;;;;;;1999.90;999.90;;;5.20;99.90;;;;;;5093919;28;20808;-73
2022/01/19 13:05:44;;;;;;;1999.90;999.90;;;5.20;99.90;;;;;;5092756;28;20427;-73
2022/01/19 13:08:09;;;;;;;1999.90;999.90;;;5.20;99.90;;;;;;5093875;28;20400;-73
2022/01/19 13:15:42;;;;;;;1999.90;999.90;;;5.20;99.90;;;;;;5093058;28;20186;-73
2022/01/19 13:18:09;;;;;;;1999.90;999.90;;;5.30;99.90;;;;;;5093708;28;20166;-73
2022/01/19 13:20:35;;;;;;;1999.90;999.90;;;5.20;99.90;;;;;;5093102;28;20405;-73
2022/01/19 13:23:01;;;;;;;1999.90;999.90;;;5.30;99.90;;;;;;5093471;28;20448;-73
2022/01/19 13:25:29;;;;;;;1999.90;999.90;;;5.40;99.90;;;;;;5089982;28;20499;-73
2022/01/19 13:27:57;;;;;;;1999.90;999.90;;;5.40;99.90;;;;;;5090343;28;20412;-73
2022/01/19 13:30:28;;;;;;;1999.90;999.90;;;5.40;99.90;;;;;;5088918;28;20170;-73
2022/01/19 13:32:55;;;;;;;1999.90;999.90;;;5.40;99.90;;;;;;5090906;28;20647;-73
2022/01/19 13:35:22;;;;;;;1999.90;999.90;;;5.40;99.90;;;;;;5090478;28;20427;-73
2022/01/19 13:37:54;;;;;;;1999.90;999.90;;;5.40;99.90;;;;;;5088536;28;20422;-74
2022/01/19 13:40:30;;;;;;;1999.90;999.90;;;5.30;99.90;;;;;;5088950;28;20511;-74
2022/01/19 13:43:00;;;;;;;1999.90;999.90;;;5.20;99.90;;;;;;5088465;28;20447;-74
2022/01/19 13:45:38;;;;;;;1999.90;999.90;;;5.20;99.90;;;;;;5089694;28;20970;-72
2022/01/19 13:50:45;;;;;;;1999.90;999.90;;;5.20;99.90;;;;;;5090601;28;20175;-73